createdAt,value
2023-05-07T00:00:43.575Z,16.00
2023-05-07T00:03:30.093Z,15.98
2023-05-07T00:06:16.333Z,15.93
2023-05-07T00:09:02.285Z,15.90
2023-05-07T00:11:48.330Z,15.89
2023-05-07T00:14:34.100Z,15.85
2023-05-07T00:17:20.011Z,15.84
2023-05-07T00:20:06.291Z,15.75
2023-05-07T00:22:52.079Z,15.71
2023-05-07T00:25:37.836Z,15.58
2023-05-07T00:28:23.691Z,15.53
2023-05-07T00:31:09.473Z,15.52
2023-05-07T00:33:55.384Z,15.47
2023-05-07T00:36:41.408Z,15.46
2023-05-07T00:39:27.534Z,15.42
2023-05-07T00:42:13.358Z,15.44
2023-05-07T00:44:59.622Z,15.42
2023-05-07T00:47:46.123Z,15.36
2023-05-07T00:50:32.966Z,15.36
2023-05-07T00:53:19.009Z,15.35
2023-05-07T00:56:05.717Z,15.35
2023-05-07T00:58:51.405Z,15.26
2023-05-07T01:01:38.039Z,15.27
2023-05-07T01:04:23.986Z,15.24
2023-05-07T01:07:10.870Z,15.22
2023-05-07T01:09:57.146Z,15.15
2023-05-07T01:12:43.665Z,15.15
2023-05-07T01:15:29.856Z,15.12
2023-05-07T01:18:16.346Z,15.08
2023-05-07T01:21:05.825Z,15.05
2023-05-07T01:23:52.025Z,15.00
2023-05-07T01:26:38.223Z,14.96
2023-05-07T01:29:24.088Z,14.92
2023-05-07T01:32:10.387Z,14.84
2023-05-07T01:34:56.879Z,14.85
2023-05-07T01:37:43.159Z,14.74
2023-05-07T01:40:29.284Z,14.77
2023-05-07T01:43:15.545Z,14.72
2023-05-07T01:46:02.772Z,14.70
2023-05-07T01:48:49.550Z,14.70
2023-05-07T01:51:36.110Z,14.70
2023-05-07T01:54:28.716Z,14.62
2023-05-07T01:57:17.021Z,14.65
2023-05-07T02:00:07.348Z,14.58
2023-05-07T02:03:01.646Z,14.61
2023-05-07T02:06:04.499Z,14.55
2023-05-07T02:08:56.790Z,14.53
2023-05-07T02:11:43.117Z,14.58
2023-05-07T02:14:29.124Z,14.56
2023-05-07T02:17:15.218Z,14.54
2023-05-07T02:20:01.265Z,14.52
2023-05-07T02:22:47.100Z,14.51
2023-05-07T02:25:32.857Z,14.47
2023-05-07T02:28:19.082Z,14.45
2023-05-07T02:31:10.651Z,14.41
2023-05-07T02:33:57.288Z,14.42
2023-05-07T02:36:44.033Z,14.40
2023-05-07T02:39:35.985Z,14.35
2023-05-07T02:42:22.133Z,14.27
2023-05-07T02:45:08.710Z,14.31
2023-05-07T02:47:54.954Z,14.31
2023-05-07T02:50:40.828Z,14.26
2023-05-07T02:53:27.548Z,14.19
2023-05-07T02:56:13.484Z,14.26
2023-05-07T02:58:59.620Z,14.25
2023-05-07T03:01:50.492Z,14.22
2023-05-07T03:04:36.814Z,14.16
2023-05-07T03:07:22.985Z,14.21
2023-05-07T03:10:09.555Z,14.20
2023-05-07T03:12:55.642Z,14.18
2023-05-07T03:15:41.809Z,14.16
2023-05-07T03:18:27.654Z,14.11
2023-05-07T03:21:14.179Z,14.11
2023-05-07T03:24:00.691Z,14.09
2023-05-07T03:26:46.764Z,14.06
2023-05-07T03:29:33.031Z,14.09
2023-05-07T03:32:20.211Z,14.05
2023-05-07T03:35:06.820Z,14.07
2023-05-07T03:37:53.178Z,14.03
2023-05-07T03:40:41.115Z,14.05
2023-05-07T03:43:27.047Z,14.00
2023-05-07T03:46:20.936Z,13.93
2023-05-07T03:49:09.440Z,13.97
2023-05-07T03:51:55.524Z,13.98
2023-05-07T03:54:42.545Z,13.96
2023-05-07T03:57:30.692Z,13.99
2023-05-07T04:00:18.210Z,13.99
2023-05-07T04:03:07.126Z,14.01
2023-05-07T04:05:53.430Z,14.00
2023-05-07T04:08:40.050Z,14.04
2023-05-07T04:11:28.074Z,14.04
2023-05-07T04:14:14.832Z,14.06
2023-05-07T04:17:01.002Z,14.03
2023-05-07T04:19:47.947Z,14.03
2023-05-07T04:22:34.709Z,14.11
2023-05-07T04:25:22.962Z,14.10
2023-05-07T04:28:09.235Z,14.13
2023-05-07T04:30:56.003Z,14.17
2023-05-07T04:33:42.190Z,14.16
2023-05-07T04:36:31.921Z,14.18
2023-05-07T04:39:25.321Z,14.22
2023-05-07T04:42:16.698Z,14.21
2023-05-07T04:45:03.613Z,14.26
2023-05-07T04:47:52.807Z,14.27
2023-05-07T04:50:39.635Z,14.14
2023-05-07T04:53:26.759Z,14.30
2023-05-07T04:56:14.088Z,14.29
2023-05-07T04:59:02.404Z,14.41
2023-05-07T05:01:49.753Z,14.33
2023-05-07T05:04:38.848Z,14.47
2023-05-07T05:07:26.218Z,14.53
2023-05-07T05:10:13.101Z,14.50
2023-05-07T05:13:03.169Z,14.55
2023-05-07T05:15:51.032Z,14.58
2023-05-07T05:18:37.220Z,14.60
2023-05-07T05:21:23.445Z,14.60
2023-05-07T05:24:13.160Z,14.62
2023-05-07T05:27:02.341Z,14.63
2023-05-07T05:29:50.089Z,14.67
2023-05-07T05:32:36.336Z,14.69
2023-05-07T05:35:22.187Z,14.69
2023-05-07T05:38:09.162Z,14.72
2023-05-07T05:40:56.638Z,14.75
2023-05-07T05:43:42.711Z,14.80
2023-05-07T05:46:31.786Z,14.85
2023-05-07T05:49:18.548Z,14.85
2023-05-07T05:52:05.325Z,14.89
2023-05-07T05:54:52.052Z,14.90
2023-05-07T05:57:39.332Z,14.93
2023-05-07T06:00:25.815Z,14.93
2023-05-07T06:03:19.344Z,14.97
2023-05-07T06:06:06.203Z,15.04
2023-05-07T06:08:52.646Z,15.15
2023-05-07T06:11:44.851Z,15.19
2023-05-07T06:14:32.172Z,15.24
2023-05-07T06:17:20.126Z,15.28
2023-05-07T06:20:10.106Z,15.34
2023-05-07T06:22:56.527Z,15.40
2023-05-07T06:25:42.347Z,15.46
2023-05-07T06:28:28.800Z,15.52
2023-05-07T06:31:21.925Z,15.54
2023-05-07T06:34:16.480Z,15.61
2023-05-07T06:37:02.620Z,15.60
2023-05-07T06:40:14.887Z,15.69
2023-05-07T06:43:01.798Z,15.77
2023-05-07T06:46:02.134Z,15.80
2023-05-07T06:48:48.190Z,15.86
2023-05-07T06:51:34.883Z,15.93
2023-05-07T06:54:28.164Z,15.97
2023-05-07T06:57:14.272Z,15.99
2023-05-07T07:00:00.848Z,16.08
2023-05-07T07:02:46.822Z,16.17
2023-05-07T07:05:35.087Z,16.21
2023-05-07T07:08:22.553Z,16.25
2023-05-07T07:11:09.617Z,16.31
2023-05-07T07:13:55.794Z,16.38
2023-05-07T07:16:42.129Z,16.46
2023-05-07T07:19:28.036Z,16.50
2023-05-07T07:22:15.253Z,16.56
2023-05-07T07:25:01.654Z,16.55
2023-05-07T07:27:49.032Z,16.62
2023-05-07T07:30:36.284Z,16.71
2023-05-07T07:33:22.360Z,16.68
2023-05-07T07:36:09.725Z,16.79
2023-05-07T07:38:56.694Z,16.87
2023-05-07T07:41:42.972Z,16.92
2023-05-07T07:44:29.577Z,17.02
2023-05-07T07:47:19.955Z,17.05
2023-05-07T07:50:08.909Z,17.11
2023-05-07T07:52:55.243Z,17.18
2023-05-07T07:55:41.893Z,17.28
2023-05-07T07:58:30.351Z,17.39
2023-05-07T08:01:18.327Z,17.47
2023-05-07T08:04:06.725Z,17.54
2023-05-07T08:06:57.275Z,17.59
2023-05-07T08:09:44.267Z,17.69
2023-05-07T08:12:31.271Z,17.73
2023-05-07T08:15:21.435Z,17.85
2023-05-07T08:18:08.829Z,17.87
2023-05-07T08:20:56.562Z,17.96
2023-05-07T08:23:45.932Z,18.01
2023-05-07T08:26:35.289Z,18.11
2023-05-07T08:29:23.694Z,18.18
2023-05-07T08:32:09.622Z,18.23
2023-05-07T08:34:56.068Z,18.29
2023-05-07T08:37:41.983Z,18.39
2023-05-07T08:40:29.030Z,18.46
2023-05-07T08:43:18.853Z,18.53
2023-05-07T08:46:06.585Z,18.64
2023-05-07T08:48:56.539Z,18.71
2023-05-07T08:51:42.909Z,18.77
2023-05-07T08:54:30.335Z,18.82
2023-05-07T08:57:16.704Z,18.92
2023-05-07T09:00:05.036Z,19.02
2023-05-07T09:02:51.377Z,19.05
2023-05-07T09:05:37.953Z,19.15
2023-05-07T09:08:28.275Z,19.24
2023-05-07T09:11:16.867Z,19.33
2023-05-07T09:14:03.770Z,19.43
2023-05-07T09:16:55.177Z,19.52
2023-05-07T09:19:45.705Z,19.60
2023-05-07T09:22:35.095Z,19.67
2023-05-07T09:25:32.660Z,19.74
2023-05-07T09:28:23.145Z,19.84
2023-05-07T09:31:10.619Z,19.91
2023-05-07T09:33:57.283Z,20.01
2023-05-07T09:36:46.219Z,20.06
2023-05-07T09:39:45.484Z,20.13
2023-05-07T09:42:32.814Z,20.20
2023-05-07T09:45:31.476Z,20.31
2023-05-07T09:48:18.637Z,20.38
2023-05-07T09:51:13.945Z,20.48
2023-05-07T09:54:04.486Z,20.52
2023-05-07T09:56:53.909Z,20.62
2023-05-07T09:59:45.192Z,20.71
2023-05-07T10:02:36.366Z,20.80
2023-05-07T10:05:23.430Z,20.87
2023-05-07T10:08:11.396Z,20.98
2023-05-07T10:11:00.900Z,21.04
2023-05-07T10:13:49.283Z,21.13
2023-05-07T10:16:39.761Z,21.24
2023-05-07T10:19:30.928Z,21.34
2023-05-07T10:22:17.943Z,21.46
2023-05-07T10:25:09.153Z,21.54
2023-05-07T10:27:56.825Z,21.63
2023-05-07T10:31:17.082Z,21.77
2023-05-07T10:34:12.722Z,21.86
2023-05-07T10:36:59.528Z,21.96
2023-05-07T10:39:45.695Z,22.03
2023-05-07T10:42:31.807Z,22.14
2023-05-07T10:45:18.441Z,22.21
2023-05-07T10:48:28.840Z,22.32
2023-05-07T10:51:22.054Z,22.47
2023-05-07T10:54:16.694Z,22.60
2023-05-07T10:57:32.833Z,22.77
2023-05-07T11:00:38.950Z,22.92
2023-05-07T11:03:34.059Z,23.09
2023-05-07T11:06:24.326Z,23.26
2023-05-07T11:09:18.274Z,23.43
2023-05-07T11:12:14.126Z,23.55
2023-05-07T11:15:10.796Z,23.82
2023-05-07T11:18:00.505Z,23.99
2023-05-07T11:20:55.851Z,24.18
2023-05-07T11:23:52.202Z,24.33
2023-05-07T11:26:51.195Z,24.51
2023-05-07T11:29:39.716Z,24.68
2023-05-07T11:32:33.240Z,24.99
2023-05-07T11:35:24.209Z,25.18
2023-05-07T11:38:10.762Z,25.31
2023-05-07T11:41:03.562Z,25.42
2023-05-07T11:44:01.124Z,25.54
2023-05-07T11:46:47.369Z,25.69
2023-05-07T11:49:33.244Z,25.87
2023-05-07T11:52:20.393Z,26.08
2023-05-07T11:55:06.356Z,26.24
2023-05-07T11:57:52.580Z,26.49
2023-05-07T12:00:38.720Z,26.66
2023-05-07T12:03:24.613Z,26.84
2023-05-07T12:06:12.360Z,27.05
2023-05-07T12:08:58.549Z,27.10
2023-05-07T12:11:47.390Z,27.10
2023-05-07T12:14:33.809Z,27.02
2023-05-07T12:17:19.981Z,26.92
2023-05-07T12:20:07.167Z,27.04
2023-05-07T12:22:53.377Z,27.43
2023-05-07T12:25:40.962Z,27.96
2023-05-07T12:28:26.902Z,28.39
2023-05-07T12:31:12.762Z,28.57
2023-05-07T12:34:01.952Z,28.69
2023-05-07T12:36:49.436Z,28.77
2023-05-07T12:39:35.428Z,28.95
2023-05-07T12:42:27.180Z,29.43
2023-05-07T12:45:17.434Z,30.06
2023-05-07T12:48:04.154Z,30.72
2023-05-07T12:51:13.457Z,31.30
2023-05-07T12:53:59.576Z,31.83
2023-05-07T12:56:45.676Z,32.17
2023-05-07T12:59:35.236Z,32.62
2023-05-07T13:02:21.272Z,33.25
2023-05-07T13:05:08.180Z,33.96
2023-05-07T13:07:57.394Z,34.81
2023-05-07T13:10:43.426Z,35.20
2023-05-07T13:13:32.365Z,35.40
2023-05-07T13:19:08.171Z,36.20
2023-05-07T13:21:54.176Z,36.58
2023-05-07T13:24:42.785Z,36.57
2023-05-07T13:27:28.440Z,36.57
2023-05-07T13:30:14.653Z,36.92
2023-05-07T13:33:01.091Z,37.50
2023-05-07T13:35:47.226Z,38.25
2023-05-07T13:38:33.250Z,39.02
2023-05-07T13:41:19.709Z,39.76
2023-05-07T13:44:06.144Z,40.47
2023-05-07T13:46:52.314Z,41.14
2023-05-07T13:49:38.400Z,41.77
2023-05-07T13:52:24.530Z,42.39
2023-05-07T13:55:11.890Z,42.91
2023-05-07T13:57:58.875Z,43.38
2023-05-07T14:00:44.793Z,43.80
2023-05-07T14:03:32.921Z,44.22
2023-05-07T14:06:19.033Z,44.60
2023-05-07T14:09:05.158Z,44.94
2023-05-07T14:11:52.409Z,44.68
2023-05-07T14:14:38.151Z,43.74
2023-05-07T14:17:26.450Z,42.50
2023-05-07T14:20:13.814Z,41.23
2023-05-07T14:23:00.164Z,39.96
2023-05-07T14:25:47.149Z,38.76
2023-05-07T14:28:33.226Z,37.72
2023-05-07T14:31:19.209Z,36.74
2023-05-07T14:34:07.151Z,35.85
2023-05-07T14:36:53.505Z,35.05
2023-05-07T14:39:39.364Z,34.25
2023-05-07T14:42:25.324Z,33.63
2023-05-07T14:45:12.124Z,33.09
2023-05-07T14:47:58.135Z,32.61
2023-05-07T14:50:44.235Z,32.38
2023-05-07T14:53:30.388Z,32.17
2023-05-07T14:56:16.318Z,31.82
2023-05-07T14:59:04.250Z,31.49
2023-05-07T15:01:50.266Z,31.77
2023-05-07T15:04:35.992Z,32.60
2023-05-07T15:07:22.123Z,33.48
2023-05-07T15:10:09.864Z,33.92
2023-05-07T15:12:55.718Z,34.03
2023-05-07T15:15:43.050Z,34.19
2023-05-07T15:18:29.243Z,34.66
2023-05-07T15:21:15.000Z,35.03
2023-05-07T15:24:02.362Z,35.48
2023-05-07T15:26:48.145Z,36.01
2023-05-07T15:29:34.116Z,36.42
2023-05-07T15:32:21.476Z,36.72
2023-05-07T15:35:08.857Z,36.94
2023-05-07T15:37:55.102Z,37.00
2023-05-07T15:40:43.865Z,36.91
2023-05-07T15:43:29.998Z,36.72
2023-05-07T15:46:25.422Z,36.38
2023-05-07T15:49:11.916Z,35.95
2023-05-07T15:51:58.199Z,35.45
2023-05-07T15:54:44.390Z,34.91
2023-05-07T15:57:38.611Z,34.39
2023-05-07T16:00:46.106Z,33.72
2023-05-07T16:03:38.903Z,33.01
2023-05-07T16:10:12.624Z,31.70
2023-05-07T16:13:04.960Z,31.09
2023-05-07T16:15:56.653Z,30.61
2023-05-07T16:18:42.431Z,30.21
2023-05-07T16:21:28.459Z,29.85
2023-05-07T16:24:15.918Z,29.52
2023-05-07T16:27:02.064Z,29.17
2023-05-07T16:29:48.129Z,28.94
2023-05-07T16:32:34.827Z,28.71
2023-05-07T16:35:20.785Z,28.50
2023-05-07T16:38:10.321Z,28.28
2023-05-07T16:40:58.180Z,28.12
2023-05-07T16:43:44.398Z,27.98
2023-05-07T16:46:30.369Z,27.85
2023-05-07T16:49:16.345Z,27.73
2023-05-07T16:52:02.087Z,27.55
2023-05-07T16:54:47.771Z,27.43
2023-05-07T16:57:33.787Z,27.30
2023-05-07T17:00:20.019Z,27.19
2023-05-07T17:03:06.427Z,27.06
2023-05-07T17:05:53.013Z,26.91
2023-05-07T17:08:40.588Z,26.83
2023-05-07T17:11:31.182Z,26.69
2023-05-07T17:14:17.398Z,26.59
2023-05-07T17:17:03.609Z,26.40
2023-05-07T17:19:49.617Z,26.36
2023-05-07T17:25:39.100Z,26.15
2023-05-07T17:28:25.084Z,26.03
2023-05-07T17:31:11.371Z,25.97
2023-05-07T17:33:59.146Z,25.93
2023-05-07T17:36:48.838Z,25.86
2023-05-07T17:48:34.568Z,25.51
2023-05-07T17:51:20.480Z,25.46
2023-05-07T17:54:06.511Z,25.43
2023-05-07T17:56:52.248Z,25.37
2023-05-07T18:04:03.547Z,25.09
2023-05-07T18:06:49.276Z,24.98
2023-05-07T18:14:04.652Z,24.83
2023-05-07T18:16:50.718Z,24.76
2023-05-07T18:19:40.747Z,24.72
2023-05-07T18:23:06.676Z,24.63
2023-05-07T18:26:17.740Z,24.57
2023-05-07T18:30:29.744Z,24.50
2023-05-07T18:33:16.028Z,24.44
2023-05-07T18:36:02.075Z,24.41
2023-05-07T18:40:02.007Z,24.31
2023-05-07T18:42:47.803Z,24.23
2023-05-07T18:45:35.000Z,24.19
2023-05-07T18:53:30.604Z,24.04
2023-05-07T18:56:55.671Z,23.99
2023-05-07T18:59:41.750Z,23.91
2023-05-07T19:02:27.452Z,23.83
2023-05-07T19:05:13.553Z,23.80
2023-05-07T19:08:37.048Z,23.71
2023-05-07T19:11:23.890Z,23.68
2023-05-07T19:14:11.148Z,23.59
2023-05-07T19:16:57.101Z,23.57
2023-05-07T19:24:39.891Z,23.35
2023-05-07T19:38:08.254Z,23.05
2023-05-07T19:40:55.471Z,23.02
2023-05-07T19:43:41.879Z,22.96
2023-05-07T19:46:28.790Z,22.94
2023-05-07T19:49:15.023Z,22.89
2023-05-07T19:52:01.282Z,22.80
2023-05-07T19:54:48.026Z,22.76
2023-05-07T19:57:33.930Z,22.69
2023-05-07T20:00:21.994Z,22.63
2023-05-07T20:03:08.481Z,22.60
2023-05-07T20:05:54.526Z,22.50
2023-05-07T20:08:40.753Z,22.49
2023-05-07T20:11:29.304Z,22.45
2023-05-07T20:14:15.577Z,22.42
2023-05-07T20:17:01.680Z,22.33
2023-05-07T20:19:47.768Z,22.30
2023-05-07T20:22:33.514Z,22.22
2023-05-07T20:25:32.350Z,22.13
2023-05-07T20:28:18.669Z,22.05
2023-05-07T20:31:04.847Z,22.00
2023-05-07T20:33:50.869Z,21.91
2023-05-07T20:36:37.807Z,21.88
2023-05-07T20:39:24.435Z,21.84
2023-05-07T20:42:10.462Z,21.79
2023-05-07T20:45:02.748Z,21.72
2023-05-07T20:47:58.036Z,21.68
2023-05-07T20:50:44.030Z,21.68
2023-05-07T20:53:33.248Z,21.63
2023-05-07T20:56:19.357Z,21.63
2023-05-07T20:59:05.737Z,21.56
2023-05-07T21:01:51.849Z,21.51
2023-05-07T21:04:37.907Z,21.50
2023-05-07T21:07:23.774Z,21.45
2023-05-07T21:10:09.909Z,21.40
2023-05-07T21:12:55.755Z,21.32
2023-05-07T21:15:46.194Z,21.29
2023-05-07T21:18:33.840Z,21.18
2023-05-07T21:21:19.700Z,21.17
2023-05-07T21:24:06.258Z,21.10
2023-05-07T21:26:56.277Z,21.08
2023-05-07T21:29:42.451Z,21.05
2023-05-07T21:32:28.342Z,20.98
2023-05-07T21:35:14.209Z,20.93
2023-05-07T21:38:02.583Z,20.91
2023-05-07T21:40:50.245Z,20.86
2023-05-07T21:43:36.365Z,20.81
2023-05-07T21:46:22.191Z,20.76
2023-05-07T21:49:09.367Z,20.70
2023-05-07T21:51:55.269Z,20.67
2023-05-07T21:54:41.270Z,20.60
2023-05-07T21:57:27.029Z,20.56
2023-05-07T22:00:13.699Z,20.51
2023-05-07T22:03:00.090Z,20.48
2023-05-07T22:05:46.909Z,20.42
2023-05-07T22:08:33.758Z,20.35
2023-05-07T22:11:19.567Z,20.30
2023-05-07T22:14:06.266Z,20.23
2023-05-07T22:16:52.274Z,20.13
2023-05-07T22:19:38.591Z,20.08
2023-05-07T22:22:24.642Z,20.02
2023-05-07T22:25:10.818Z,19.94
2023-05-07T22:27:57.098Z,19.89
2023-05-07T22:30:43.443Z,19.84
2023-05-07T22:33:29.465Z,19.85
2023-05-07T22:36:15.449Z,19.75
2023-05-07T22:39:02.933Z,19.78
2023-05-07T22:41:50.137Z,19.79
2023-05-07T22:44:35.898Z,19.74
2023-05-07T22:47:22.775Z,19.73
2023-05-07T22:50:08.960Z,19.64
2023-05-07T22:52:55.172Z,19.62
2023-05-07T22:55:41.352Z,19.59
2023-05-07T22:58:27.767Z,19.53
2023-05-07T23:01:14.926Z,19.50
2023-05-07T23:04:00.678Z,19.48
2023-05-07T23:06:46.696Z,19.44
2023-05-07T23:09:33.026Z,19.41
2023-05-07T23:12:18.841Z,19.36
2023-05-07T23:15:05.525Z,19.32
2023-05-07T23:17:51.424Z,19.27
2023-05-07T23:20:37.446Z,19.24
2023-05-07T23:23:33.795Z,19.19
2023-05-07T23:26:20.323Z,19.18
2023-05-07T23:29:06.302Z,19.18
2023-05-07T23:31:52.242Z,19.14
2023-05-07T23:34:38.214Z,19.11
2023-05-07T23:37:24.757Z,19.08
2023-05-07T23:40:10.979Z,19.02
2023-05-07T23:42:58.742Z,18.96
2023-05-07T23:45:44.736Z,18.91
2023-05-07T23:48:30.676Z,18.88
2023-05-07T23:51:16.943Z,18.88
2023-05-07T23:54:03.010Z,18.85
2023-05-07T23:56:49.217Z,18.83
2023-05-07T23:59:35.187Z,18.82
